createdAt,value
2023-05-08T00:00:30.458Z,90.08
2023-05-08T00:01:30.453Z,90.38
2023-05-08T00:02:30.550Z,89.87
2023-05-08T00:03:30.561Z,89.76
2023-05-08T00:04:30.458Z,89.66
2023-05-08T00:05:30.389Z,89.56
2023-05-08T00:06:30.393Z,89.25
2023-05-08T00:07:30.364Z,89.36
2023-05-08T00:08:30.344Z,89.15
2023-05-08T00:09:30.341Z,89.15
2023-05-08T00:10:30.312Z,89.04
2023-05-08T00:11:30.325Z,89.15
2023-05-08T00:12:30.294Z,89.15
2023-05-08T00:13:30.273Z,89.15
2023-05-08T00:14:30.279Z,89.15
2023-05-08T00:15:30.280Z,89.36
2023-05-08T00:16:30.321Z,89.25
2023-05-08T00:17:30.260Z,89.25
2023-05-08T00:18:30.225Z,89.36
2023-05-08T00:19:30.200Z,89.91
2023-05-08T00:20:30.205Z,90.22
2023-05-08T00:21:30.180Z,90.63
2023-05-08T00:22:30.174Z,91.04
2023-05-08T00:23:30.146Z,91.39
2023-05-08T00:24:30.143Z,91.60
2023-05-08T00:25:30.138Z,91.70
2023-05-08T00:26:30.122Z,92.01
2023-05-08T00:27:30.105Z,92.11
2023-05-08T00:28:30.106Z,92.57
2023-05-08T00:29:30.100Z,92.87
2023-05-08T00:30:30.079Z,93.08
2023-05-08T00:31:30.123Z,93.39
2023-05-08T00:32:30.197Z,93.59
2023-05-08T00:33:30.033Z,93.84
2023-05-08T00:34:30.093Z,94.15
2023-05-08T00:35:29.999Z,94.05
2023-05-08T00:36:30.020Z,94.26
2023-05-08T00:37:29.967Z,94.26
2023-05-08T00:38:29.971Z,94.46
2023-05-08T00:39:29.960Z,94.56
2023-05-08T00:40:29.938Z,94.36
2023-05-08T00:41:29.941Z,94.46
2023-05-08T00:42:29.901Z,94.71
2023-05-08T00:43:29.952Z,94.92
2023-05-08T00:44:29.886Z,94.81
2023-05-08T00:45:29.865Z,95.02
2023-05-08T00:46:29.922Z,95.12
2023-05-08T00:47:29.871Z,95.23
2023-05-08T00:48:29.846Z,95.33
2023-05-08T00:49:29.815Z,95.33
2023-05-08T00:50:37.293Z,95.23
2023-05-08T00:51:29.784Z,95.33
2023-05-08T00:52:29.767Z,95.53
2023-05-08T00:53:29.774Z,95.68
2023-05-08T00:54:29.749Z,95.84
2023-05-08T00:55:29.740Z,95.78
2023-05-08T00:56:29.715Z,95.78
2023-05-08T00:57:29.728Z,95.89
2023-05-08T00:58:29.761Z,95.89
2023-05-08T00:59:29.688Z,95.89
2023-05-08T01:00:29.682Z,95.89
2023-05-08T01:01:29.663Z,95.89
2023-05-08T01:02:29.748Z,95.89
2023-05-08T01:03:29.761Z,95.99
2023-05-08T01:04:29.676Z,95.89
2023-05-08T01:05:29.627Z,95.89
2023-05-08T01:06:29.599Z,96.09
2023-05-08T01:07:29.594Z,96.09
2023-05-08T01:08:29.555Z,96.09
2023-05-08T01:09:29.556Z,95.99
2023-05-08T01:10:29.537Z,95.99
2023-05-08T01:11:29.532Z,96.20
2023-05-08T01:12:29.535Z,96.20
2023-05-08T01:13:29.514Z,96.20
2023-05-08T01:14:29.488Z,96.34
2023-05-08T01:15:29.484Z,96.55
2023-05-08T01:16:29.513Z,96.66
2023-05-08T01:17:29.497Z,96.61
2023-05-08T01:18:29.440Z,96.50
2023-05-08T01:19:29.433Z,96.45
2023-05-08T01:20:29.422Z,96.34
2023-05-08T01:21:29.410Z,96.55
2023-05-08T01:22:29.378Z,96.41
2023-05-08T01:23:29.372Z,96.30
2023-05-08T01:24:29.352Z,96.34
2023-05-08T01:25:29.359Z,96.45
2023-05-08T01:26:29.326Z,96.66
2023-05-08T01:27:29.317Z,96.66
2023-05-08T01:28:29.310Z,96.75
2023-05-08T01:29:29.294Z,96.96
2023-05-08T01:30:29.293Z,96.86
2023-05-08T01:31:29.268Z,97.17
2023-05-08T01:32:29.308Z,97.27
2023-05-08T01:33:29.270Z,97.17
2023-05-08T01:34:29.240Z,97.06
2023-05-08T01:35:29.237Z,96.96
2023-05-08T01:36:29.197Z,96.96
2023-05-08T01:37:29.181Z,96.96
2023-05-08T01:38:29.176Z,97.17
2023-05-08T01:39:29.179Z,97.27
2023-05-08T01:40:29.158Z,97.27
2023-05-08T01:41:29.136Z,97.21
2023-05-08T01:42:29.126Z,97.21
2023-05-08T01:43:29.118Z,97.42
2023-05-08T01:44:29.106Z,97.52
2023-05-08T01:45:29.092Z,97.73
2023-05-08T01:46:29.159Z,97.73
2023-05-08T01:47:29.120Z,97.83
2023-05-08T01:48:29.043Z,97.73
2023-05-08T01:49:29.066Z,97.63
2023-05-08T01:50:29.016Z,97.63
2023-05-08T01:51:29.030Z,97.52
2023-05-08T01:52:29.002Z,97.52
2023-05-08T01:53:28.999Z,97.63
2023-05-08T01:54:28.985Z,97.63
2023-05-08T01:55:28.976Z,97.73
2023-05-08T01:56:28.953Z,97.73
2023-05-08T01:57:28.943Z,97.94
2023-05-08T01:58:28.935Z,97.94
2023-05-08T01:59:28.920Z,97.83
2023-05-08T02:00:28.948Z,97.83
2023-05-08T02:01:28.888Z,97.83
2023-05-08T02:02:28.939Z,97.73
2023-05-08T02:03:28.946Z,97.73
2023-05-08T02:04:28.889Z,97.73
2023-05-08T02:05:28.828Z,97.88
2023-05-08T02:06:28.837Z,97.77
2023-05-08T02:07:28.817Z,98.19
2023-05-08T02:08:28.827Z,98.29
2023-05-08T02:09:28.784Z,98.60
2023-05-08T02:10:28.755Z,98.70
2023-05-08T02:11:28.764Z,98.70
2023-05-08T02:12:28.748Z,98.60
2023-05-08T02:13:28.792Z,98.39
2023-05-08T02:14:28.708Z,98.39
2023-05-08T02:15:28.723Z,98.54
2023-05-08T02:16:28.720Z,98.75
2023-05-08T02:17:28.703Z,98.96
2023-05-08T02:18:28.673Z,99.16
2023-05-08T02:19:28.647Z,98.96
2023-05-08T02:20:28.634Z,99.16
2023-05-08T02:21:28.646Z,99.11
2023-05-08T02:22:28.619Z,98.91
2023-05-08T02:23:28.604Z,98.80
2023-05-08T02:24:28.574Z,98.70
2023-05-08T02:25:28.585Z,98.75
2023-05-08T02:26:28.578Z,98.85
2023-05-08T02:27:28.548Z,98.85
2023-05-08T02:28:28.532Z,98.96
2023-05-08T02:29:28.528Z,98.96
2023-05-08T02:30:28.515Z,99.16
2023-05-08T02:31:28.521Z,98.96
2023-05-08T02:32:28.499Z,99.16
2023-05-08T02:33:28.465Z,99.26
2023-05-08T02:34:28.455Z,99.37
2023-05-08T02:35:28.451Z,99.26
2023-05-08T02:36:28.708Z,99.26
2023-05-08T02:37:35.926Z,99.26
2023-05-08T02:38:35.914Z,99.26
2023-05-08T02:39:28.394Z,99.57
2023-05-08T02:40:37.074Z,99.47
2023-05-08T02:41:28.360Z,99.57
2023-05-08T02:42:28.340Z,99.37
2023-05-08T02:43:28.351Z,99.52
2023-05-08T02:44:28.330Z,99.52
2023-05-08T02:45:28.318Z,99.52
2023-05-08T02:46:28.325Z,99.72
2023-05-08T02:47:28.365Z,99.52
2023-05-08T02:48:28.266Z,99.72
2023-05-08T02:49:28.275Z,99.99
2023-05-08T02:50:28.239Z,99.99
2023-05-08T02:51:28.229Z,99.99
2023-05-08T02:52:28.219Z,99.99
2023-05-08T02:53:28.199Z,99.99
2023-05-08T02:54:28.208Z,99.98
2023-05-08T02:55:28.168Z,99.99
2023-05-08T02:56:30.879Z,99.99
2023-05-08T02:57:28.162Z,99.99
2023-05-08T02:58:28.199Z,99.99
2023-05-08T02:59:28.135Z,99.99
2023-05-08T03:00:28.108Z,99.99
2023-05-08T03:01:28.330Z,99.99
2023-05-08T03:02:28.180Z,99.99
2023-05-08T03:03:28.204Z,99.99
2023-05-08T03:04:28.105Z,99.99
2023-05-08T03:05:28.074Z,99.99
2023-05-08T03:06:28.030Z,99.99
2023-05-08T03:07:28.031Z,99.99
2023-05-08T03:08:28.018Z,99.99
2023-05-08T03:09:28.016Z,99.99
2023-05-08T03:10:27.992Z,99.99
2023-05-08T03:11:27.976Z,99.99
2023-05-08T03:12:27.972Z,99.99
2023-05-08T03:13:28.020Z,99.99
2023-05-08T03:14:27.931Z,99.99
2023-05-08T03:15:27.933Z,99.99
2023-05-08T03:16:28.037Z,99.99
2023-05-08T03:17:27.934Z,99.99
2023-05-08T03:18:27.872Z,99.99
2023-05-08T03:19:27.866Z,99.98
2023-05-08T03:20:27.841Z,99.99
2023-05-08T03:21:27.848Z,99.99
2023-05-08T03:22:27.842Z,99.99
2023-05-08T03:23:27.907Z,99.99
2023-05-08T03:24:27.980Z,99.99
2023-05-08T03:25:27.803Z,99.99
2023-05-08T03:26:27.800Z,99.99
2023-05-08T03:27:27.775Z,99.99
2023-05-08T03:28:27.767Z,99.99
2023-05-08T03:29:27.739Z,99.99
2023-05-08T03:30:27.719Z,99.99
2023-05-08T03:31:27.737Z,99.99
2023-05-08T03:32:27.709Z,99.99
2023-05-08T03:33:27.680Z,99.99
2023-05-08T03:34:27.663Z,99.99
2023-05-08T03:35:27.662Z,99.99
2023-05-08T03:36:27.645Z,99.99
2023-05-08T03:37:27.657Z,99.99
2023-05-08T03:38:27.614Z,99.99
2023-05-08T03:39:27.604Z,99.99
2023-05-08T03:40:27.609Z,99.99
2023-05-08T03:41:27.585Z,99.99
2023-05-08T03:42:27.554Z,99.99
2023-05-08T03:43:27.578Z,99.98
2023-05-08T03:44:27.541Z,99.98
2023-05-08T03:45:27.533Z,99.99
2023-05-08T03:46:27.630Z,99.99
2023-05-08T03:47:27.579Z,99.99
2023-05-08T03:48:27.531Z,99.99
2023-05-08T03:49:27.465Z,99.99
2023-05-08T03:50:27.486Z,99.99
2023-05-08T03:51:27.446Z,99.99
2023-05-08T03:52:27.428Z,99.99
2023-05-08T03:53:27.419Z,99.99
2023-05-08T03:54:27.419Z,99.99
2023-05-08T03:55:27.411Z,99.99
2023-05-08T03:56:27.384Z,99.82
2023-05-08T03:57:27.413Z,99.72
2023-05-08T03:58:27.346Z,99.72
2023-05-08T03:59:27.382Z,99.72
2023-05-08T04:00:27.341Z,99.72
2023-05-08T04:01:27.318Z,99.52
2023-05-08T04:02:27.446Z,99.52
2023-05-08T04:03:27.417Z,99.31
2023-05-08T04:04:27.304Z,99.31
2023-05-08T04:05:27.287Z,99.21
2023-05-08T04:06:30.652Z,99.06
2023-05-08T04:07:28.254Z,99.06
2023-05-08T04:08:27.265Z,98.96
2023-05-08T04:09:27.239Z,98.96
2023-05-08T04:10:27.215Z,98.85
2023-05-08T04:11:27.191Z,98.75
2023-05-08T04:12:27.178Z,98.65
2023-05-08T04:13:27.226Z,98.54
2023-05-08T04:14:27.174Z,98.54
2023-05-08T04:15:27.147Z,98.44
2023-05-08T04:16:27.187Z,98.29
2023-05-08T04:17:27.164Z,98.29
2023-05-08T04:18:27.113Z,98.08
2023-05-08T04:19:34.635Z,97.77
2023-05-08T04:20:27.084Z,97.77
2023-05-08T04:21:27.064Z,97.47
2023-05-08T04:22:27.069Z,97.36
2023-05-08T04:23:27.075Z,97.42
2023-05-08T04:24:27.028Z,97.11
2023-05-08T04:25:27.026Z,97.01
2023-05-08T04:26:27.036Z,96.80
2023-05-08T04:27:27.053Z,96.80
2023-05-08T04:28:26.980Z,96.49
2023-05-08T04:29:26.977Z,96.59
2023-05-08T04:30:26.986Z,96.14
2023-05-08T04:31:26.984Z,95.93
2023-05-08T04:32:26.987Z,95.62
2023-05-08T04:33:26.966Z,95.42
2023-05-08T04:34:26.969Z,95.31
2023-05-08T04:35:26.892Z,95.10
2023-05-08T04:36:26.902Z,95.31
2023-05-08T04:37:26.915Z,94.85
2023-05-08T04:38:26.867Z,94.96
2023-05-08T04:39:26.855Z,94.65
2023-05-08T04:40:26.835Z,94.76
2023-05-08T04:41:26.870Z,94.85
2023-05-08T04:42:26.809Z,94.34
2023-05-08T04:43:26.795Z,94.24
2023-05-08T04:44:26.795Z,94.20
2023-05-08T04:45:26.759Z,93.88
2023-05-08T04:46:26.822Z,94.09
2023-05-08T04:47:26.817Z,93.58
2023-05-08T04:48:26.791Z,93.16
2023-05-08T04:49:26.713Z,93.37
2023-05-08T04:50:26.713Z,93.68
2023-05-08T04:51:26.701Z,93.37
2023-05-08T04:52:26.685Z,93.16
2023-05-08T04:53:26.693Z,93.06
2023-05-08T04:54:26.652Z,92.92
2023-05-08T04:55:26.669Z,92.82
2023-05-08T04:56:26.644Z,92.61
2023-05-08T04:57:26.653Z,92.11
2023-05-08T04:58:26.688Z,90.94
2023-05-08T04:59:26.580Z,88.95
2023-05-08T05:00:26.621Z,87.53
2023-05-08T05:01:26.606Z,86.15
2023-05-08T05:02:26.592Z,84.74
2023-05-08T05:03:26.580Z,83.47
2023-05-08T05:04:26.576Z,82.65
2023-05-08T05:05:26.527Z,83.06
2023-05-08T05:06:26.548Z,83.51
2023-05-08T05:07:26.489Z,84.68
2023-05-08T05:08:26.483Z,84.72
2023-05-08T05:09:26.484Z,85.78
2023-05-08T05:10:26.439Z,86.46
2023-05-08T05:11:26.433Z,85.85
2023-05-08T05:12:26.417Z,86.11
2023-05-08T05:13:26.516Z,85.60
2023-05-08T05:14:26.418Z,85.03
2023-05-08T05:15:26.395Z,85.95
2023-05-08T05:16:26.393Z,85.89
2023-05-08T05:17:26.407Z,86.60
2023-05-08T05:18:26.350Z,87.02
2023-05-08T05:19:26.358Z,86.71
2023-05-08T05:20:26.316Z,87.46
2023-05-08T05:21:26.290Z,86.95
2023-05-08T05:22:26.284Z,87.57
2023-05-08T05:23:26.265Z,87.77
2023-05-08T05:24:26.271Z,87.98
2023-05-08T05:25:26.272Z,88.23
2023-05-08T05:26:26.240Z,88.12
2023-05-08T05:27:26.217Z,88.29
2023-05-08T05:28:26.221Z,88.29
2023-05-08T05:29:26.177Z,88.08
2023-05-08T05:30:26.203Z,88.08
2023-05-08T05:31:26.199Z,87.98
2023-05-08T05:32:26.232Z,88.39
2023-05-08T05:33:26.148Z,87.88
2023-05-08T05:34:26.131Z,87.53
2023-05-08T05:35:26.126Z,87.73
2023-05-08T05:36:26.099Z,87.53
2023-05-08T05:37:26.148Z,87.02
2023-05-08T05:38:26.095Z,86.98
2023-05-08T05:39:26.058Z,86.87
2023-05-08T05:40:26.070Z,86.87
2023-05-08T05:41:26.048Z,86.46
2023-05-08T05:42:26.042Z,86.66
2023-05-08T05:43:26.025Z,86.66
2023-05-08T05:44:26.024Z,86.36
2023-05-08T05:45:26.035Z,86.46
2023-05-08T05:46:26.012Z,86.77
2023-05-08T05:47:26.017Z,86.63
2023-05-08T05:48:25.986Z,86.22
2023-05-08T05:49:25.920Z,85.71
2023-05-08T05:50:25.928Z,86.36
2023-05-08T05:51:25.926Z,86.15
2023-05-08T05:52:25.891Z,86.52
2023-05-08T05:53:25.897Z,86.73
2023-05-08T05:54:25.877Z,86.52
2023-05-08T05:55:25.851Z,86.73
2023-05-08T05:56:25.848Z,86.22
2023-05-08T05:57:25.812Z,85.39
2023-05-08T05:58:25.813Z,86.07
2023-05-08T05:59:25.791Z,85.46
2023-05-08T06:00:25.801Z,85.39
2023-05-08T06:01:25.815Z,85.30
2023-05-08T06:02:25.844Z,86.22
2023-05-08T06:03:25.819Z,86.32
2023-05-08T06:04:25.780Z,86.18
2023-05-08T06:05:25.794Z,85.87
2023-05-08T06:06:25.730Z,86.07
2023-05-08T06:07:25.692Z,85.97
2023-05-08T06:08:25.687Z,85.93
2023-05-08T06:09:25.697Z,84.80
2023-05-08T06:10:25.687Z,85.01
2023-05-08T06:11:25.713Z,84.50
2023-05-08T06:12:25.668Z,84.70
2023-05-08T06:13:25.688Z,83.98
2023-05-08T06:14:25.617Z,84.50
2023-05-08T06:15:25.580Z,85.01
2023-05-08T06:16:25.654Z,84.70
2023-05-08T06:17:25.615Z,85.11
2023-05-08T06:18:25.567Z,85.42
2023-05-08T06:19:25.559Z,84.70
2023-05-08T06:20:26.344Z,85.11
2023-05-08T06:21:25.528Z,85.07
2023-05-08T06:22:25.528Z,84.87
2023-05-08T06:23:25.496Z,83.95
2023-05-08T06:24:25.492Z,84.25
2023-05-08T06:25:25.478Z,84.56
2023-05-08T06:26:25.444Z,84.46
2023-05-08T06:27:25.442Z,83.84
2023-05-08T06:28:25.433Z,83.91
2023-05-08T06:29:25.408Z,84.31
2023-05-08T06:30:25.426Z,83.50
2023-05-08T06:31:25.431Z,82.84
2023-05-08T06:32:25.436Z,83.66
2023-05-08T06:33:26.812Z,82.70
2023-05-08T06:34:25.350Z,82.87
2023-05-08T06:35:25.325Z,81.24
2023-05-08T06:36:25.328Z,81.13
2023-05-08T06:37:25.312Z,80.69
2023-05-08T06:38:25.310Z,80.18
2023-05-08T06:39:25.270Z,80.04
2023-05-08T06:40:25.265Z,79.83
2023-05-08T06:41:25.245Z,79.52
2023-05-08T06:42:25.276Z,78.71
2023-05-08T06:43:25.214Z,79.69
2023-05-08T06:44:25.228Z,79.39
2023-05-08T06:45:25.205Z,78.88
2023-05-08T06:46:25.245Z,79.14
2023-05-08T06:47:25.298Z,79.52
2023-05-08T06:48:25.173Z,80.43
2023-05-08T06:49:25.152Z,77.75
2023-05-08T06:51:18.220Z,78.63
2023-05-08T06:52:18.210Z,77.20
2023-05-08T06:53:18.195Z,77.57
2023-05-08T06:54:18.166Z,77.03
2023-05-08T06:55:18.154Z,75.50
2023-05-08T06:56:18.147Z,74.32
2023-05-08T06:57:18.134Z,74.82
2023-05-08T06:58:18.164Z,75.67
2023-05-08T06:59:18.097Z,75.54
2023-05-08T07:00:18.085Z,75.43
2023-05-08T07:01:18.124Z,76.25
2023-05-08T07:02:18.070Z,74.62
2023-05-08T07:03:18.044Z,74.58
2023-05-08T07:04:18.081Z,74.08
2023-05-08T07:05:18.352Z,74.28
2023-05-08T07:06:18.018Z,74.38
2023-05-08T07:07:18.008Z,75.26
2023-05-08T07:08:17.975Z,74.01
2023-05-08T07:09:17.966Z,72.75
2023-05-08T07:10:17.981Z,72.17
2023-05-08T07:11:17.925Z,73.77
2023-05-08T07:12:25.432Z,72.25
2023-05-08T07:13:17.963Z,72.96
2023-05-08T07:14:17.901Z,72.28
2023-05-08T07:15:25.979Z,72.78
2023-05-08T07:16:18.903Z,73.19
2023-05-08T07:17:17.863Z,72.75
2023-05-08T07:18:17.841Z,71.43
2023-05-08T07:19:17.861Z,72.25
2023-05-08T07:20:17.826Z,72.11
2023-05-08T07:21:17.818Z,71.70
2023-05-08T07:22:17.809Z,72.08
2023-05-08T07:23:17.777Z,69.84
2023-05-08T07:24:17.774Z,70.96
2023-05-08T07:25:17.759Z,69.67
2023-05-08T07:26:17.729Z,71.30
2023-05-08T07:27:17.724Z,72.96
2023-05-08T07:28:17.744Z,71.64
2023-05-08T07:29:17.710Z,72.45
2023-05-08T07:30:17.727Z,71.50
2023-05-08T07:31:17.712Z,70.99
2023-05-08T07:32:17.680Z,71.77
2023-05-08T07:33:17.665Z,70.92
2023-05-08T07:34:17.643Z,71.64
2023-05-08T07:35:17.830Z,70.39
2023-05-08T07:36:17.604Z,69.27
2023-05-08T07:37:17.610Z,69.81
2023-05-08T07:38:17.586Z,69.91
2023-05-08T07:39:17.566Z,68.83
2023-05-08T07:40:17.563Z,68.22
2023-05-08T07:41:17.550Z,69.64
2023-05-08T07:42:17.529Z,69.43
2023-05-08T07:43:17.538Z,68.93
2023-05-08T07:44:17.482Z,68.83
2023-05-08T07:45:17.567Z,68.83
2023-05-08T07:46:17.551Z,71.23
2023-05-08T07:47:17.512Z,69.78
2023-05-08T07:48:17.446Z,68.83
2023-05-08T07:49:17.429Z,68.52
2023-05-08T07:50:17.426Z,67.11
2023-05-08T07:51:17.394Z,68.63
2023-05-08T07:52:17.398Z,68.73
2023-05-08T07:53:17.377Z,70.65
2023-05-08T07:54:17.365Z,68.73
2023-05-08T07:55:17.344Z,68.63
2023-05-08T07:56:17.329Z,68.40
2023-05-08T07:57:17.328Z,69.20
2023-05-08T07:58:17.445Z,68.29
2023-05-08T07:59:17.288Z,67.14
2023-05-08T08:00:17.302Z,67.05
2023-05-08T08:01:17.277Z,67.55
2023-05-08T08:02:17.297Z,67.96
2023-05-08T08:03:17.456Z,67.96
2023-05-08T08:04:17.349Z,67.45
2023-05-08T08:05:17.358Z,67.25
2023-05-08T08:06:17.208Z,66.84
2023-05-08T08:07:17.210Z,68.26
2023-05-08T08:08:17.175Z,67.25
2023-05-08T08:09:17.161Z,66.84
2023-05-08T08:10:17.163Z,66.64
2023-05-08T08:11:17.147Z,68.66
2023-05-08T08:12:17.114Z,66.91
2023-05-08T08:13:17.149Z,65.70
2023-05-08T08:14:17.132Z,66.30
2023-05-08T08:15:17.104Z,65.70
2023-05-08T08:16:17.069Z,65.59
2023-05-08T08:17:17.138Z,67.08
2023-05-08T08:18:17.069Z,65.19
2023-05-08T08:19:17.027Z,65.39
2023-05-08T08:20:17.030Z,65.29
2023-05-08T08:21:17.083Z,65.32
2023-05-08T08:22:16.986Z,66.13
2023-05-08T08:23:24.485Z,65.45
2023-05-08T08:24:25.671Z,67.76
2023-05-08T08:25:16.958Z,65.73
2023-05-08T08:26:16.925Z,66.03
2023-05-08T08:27:16.930Z,65.09
2023-05-08T08:28:16.898Z,64.61
2023-05-08T08:29:16.906Z,65.02
2023-05-08T08:30:18.664Z,67.22
2023-05-08T08:31:16.901Z,65.56
2023-05-08T08:32:16.858Z,63.57
2023-05-08T08:33:18.940Z,66.00
2023-05-08T08:34:16.837Z,64.72
2023-05-08T08:35:17.227Z,64.41
2023-05-08T08:36:16.791Z,66.54
2023-05-08T08:37:16.787Z,66.24
2023-05-08T08:38:16.781Z,65.42
2023-05-08T08:39:16.785Z,65.83
2023-05-08T08:40:16.746Z,64.75
2023-05-08T08:41:16.753Z,67.28
2023-05-08T08:42:16.720Z,64.95
2023-05-08T08:43:16.717Z,64.44
2023-05-08T08:44:16.710Z,65.56
2023-05-08T08:45:17.034Z,66.16
2023-05-08T08:46:16.735Z,64.95
2023-05-08T08:47:16.658Z,64.34
2023-05-08T08:48:16.646Z,66.67
2023-05-08T08:49:16.624Z,65.32
2023-05-08T08:50:16.610Z,65.09
2023-05-08T08:51:16.601Z,64.69
2023-05-08T08:52:16.576Z,64.32
2023-05-08T08:53:16.590Z,63.51
2023-05-08T08:54:16.553Z,62.19
2023-05-08T08:55:16.633Z,63.61
2023-05-08T08:56:16.519Z,63.18
2023-05-08T08:57:16.542Z,61.99
2023-05-08T08:58:16.523Z,63.84
2023-05-08T08:59:16.516Z,62.73
2023-05-08T09:00:16.483Z,62.70
2023-05-08T09:01:16.630Z,62.90
2023-05-08T09:02:16.558Z,63.92
2023-05-08T09:03:16.536Z,63.99
2023-05-08T09:04:16.554Z,63.55
2023-05-08T09:05:16.456Z,63.65
2023-05-08T09:06:16.417Z,63.45
2023-05-08T09:07:16.408Z,63.65
2023-05-08T09:08:16.367Z,64.03
2023-05-08T09:09:16.358Z,62.88
2023-05-08T09:10:16.369Z,62.28
2023-05-08T09:11:16.368Z,60.57
2023-05-08T09:12:16.333Z,60.77
2023-05-08T09:13:17.416Z,59.99
2023-05-08T09:14:16.289Z,63.55
2023-05-08T09:15:16.382Z,61.30
2023-05-08T09:16:16.329Z,62.21
2023-05-08T09:17:16.272Z,59.78
2023-05-08T09:18:16.249Z,60.49
2023-05-08T09:19:16.226Z,61.47
2023-05-08T09:20:16.311Z,59.25
2023-05-08T09:21:16.219Z,60.06
2023-05-08T09:22:16.179Z,59.18
2023-05-08T09:23:16.189Z,60.39
2023-05-08T09:24:16.172Z,60.89
2023-05-08T09:25:16.310Z,61.00
2023-05-08T09:26:16.147Z,60.19
2023-05-08T09:27:16.130Z,61.40
2023-05-08T09:28:16.106Z,60.29
2023-05-08T09:29:16.130Z,60.29
2023-05-08T09:30:16.103Z,60.60
2023-05-08T09:31:16.127Z,62.85
2023-05-08T09:32:16.080Z,59.90
2023-05-08T09:33:16.050Z,60.61
2023-05-08T09:34:16.040Z,59.70
2023-05-08T09:35:16.208Z,58.62
2023-05-08T09:36:23.522Z,60.57
2023-05-08T09:37:16.002Z,59.42
2023-05-08T09:38:15.980Z,60.53
2023-05-08T09:39:15.977Z,60.33
2023-05-08T09:40:15.936Z,61.24
2023-05-08T09:41:16.165Z,61.52
2023-05-08T09:42:15.940Z,60.88
2023-05-08T09:43:15.909Z,60.98
2023-05-08T09:44:15.898Z,61.49
2023-05-08T09:45:15.981Z,59.07
2023-05-08T09:46:15.871Z,59.30
2023-05-08T09:47:15.926Z,62.19
2023-05-08T09:48:15.855Z,58.92
2023-05-08T09:49:15.837Z,61.35
2023-05-08T09:50:16.106Z,61.41
2023-05-08T09:51:15.803Z,59.60
2023-05-08T09:52:15.976Z,59.70
2023-05-08T09:53:16.059Z,59.83
2023-05-08T09:54:15.763Z,60.10
2023-05-08T09:55:15.756Z,60.84
2023-05-08T09:56:15.736Z,59.80
2023-05-08T09:57:15.733Z,60.51
2023-05-08T09:58:15.749Z,60.61
2023-05-08T09:59:15.702Z,60.58
2023-05-08T10:00:15.968Z,58.97
2023-05-08T10:01:15.719Z,58.09
2023-05-08T10:02:15.669Z,60.48
2023-05-08T10:03:15.729Z,58.97
2023-05-08T10:04:15.646Z,57.58
2023-05-08T10:05:15.686Z,57.58
2023-05-08T10:06:15.595Z,62.93
2023-05-08T10:07:15.629Z,58.97
2023-05-08T10:08:15.581Z,58.16
2023-05-08T10:09:15.572Z,59.09
2023-05-08T10:10:15.603Z,58.39
2023-05-08T10:11:15.559Z,60.08
2023-05-08T10:12:15.564Z,57.56
2023-05-08T10:13:15.580Z,58.97
2023-05-08T10:14:15.498Z,59.07
2023-05-08T10:15:15.522Z,58.56
2023-05-08T10:16:15.496Z,58.56
2023-05-08T10:17:15.513Z,59.75
2023-05-08T10:18:15.450Z,58.44
2023-05-08T10:19:15.456Z,59.24
2023-05-08T10:20:15.591Z,58.44
2023-05-08T10:21:15.448Z,58.54
2023-05-08T10:22:15.427Z,58.54
2023-05-08T10:23:15.384Z,58.47
2023-05-08T10:24:15.380Z,59.77
2023-05-08T10:25:15.367Z,58.87
2023-05-08T10:26:15.344Z,61.66
2023-05-08T10:27:15.333Z,59.59
2023-05-08T10:28:15.315Z,57.37
2023-05-08T10:29:15.326Z,57.70
2023-05-08T10:30:15.592Z,58.91
2023-05-08T10:31:15.422Z,59.22
2023-05-08T10:32:15.258Z,59.62
2023-05-08T10:33:15.248Z,59.28
2023-05-08T10:34:15.232Z,58.28
2023-05-08T10:35:15.236Z,60.67
2023-05-08T10:36:15.210Z,57.48
2023-05-08T10:37:15.206Z,56.97
2023-05-08T10:38:15.191Z,57.88
2023-05-08T10:39:15.166Z,57.90
2023-05-08T10:40:15.466Z,57.70
2023-05-08T10:41:15.143Z,59.52
2023-05-08T10:42:15.161Z,58.18
2023-05-08T10:43:15.158Z,58.07
2023-05-08T10:44:15.137Z,58.38
2023-05-08T10:45:15.148Z,57.75
2023-05-08T10:46:15.187Z,58.58
2023-05-08T10:47:15.077Z,58.28
2023-05-08T10:48:15.053Z,57.50
2023-05-08T10:49:15.064Z,58.44
2023-05-08T10:50:22.028Z,58.14
2023-05-08T10:51:23.548Z,61.03
2023-05-08T10:52:14.991Z,60.49
2023-05-08T10:53:14.975Z,58.38
2023-05-08T10:54:14.975Z,59.66
2023-05-08T10:55:14.960Z,57.48
2023-05-08T10:56:14.935Z,58.55
2023-05-08T10:57:14.936Z,59.06
2023-05-08T10:58:14.978Z,58.22
2023-05-08T10:59:14.936Z,57.02
2023-05-08T11:00:15.125Z,59.03
2023-05-08T11:01:14.987Z,57.72
2023-05-08T11:02:14.903Z,58.20
2023-05-08T11:03:29.881Z,59.70
2023-05-08T11:04:15.916Z,57.29
2023-05-08T11:05:14.835Z,59.70
2023-05-08T11:06:14.879Z,59.17
2023-05-08T11:07:14.789Z,58.02
2023-05-08T11:08:14.811Z,59.30
2023-05-08T11:09:14.769Z,59.88
2023-05-08T11:10:21.537Z,55.16
2023-05-08T11:11:14.747Z,55.76
2023-05-08T11:12:14.756Z,57.94
2023-05-08T11:13:14.753Z,57.71
2023-05-08T11:14:14.700Z,58.11
2023-05-08T11:15:14.690Z,56.51
2023-05-08T11:16:14.709Z,54.30
2023-05-08T11:17:14.678Z,55.43
2023-05-08T11:18:14.722Z,56.54
2023-05-08T11:19:14.653Z,56.86
2023-05-08T11:20:14.778Z,57.59
2023-05-08T11:21:14.606Z,57.17
2023-05-08T11:22:14.602Z,56.86
2023-05-08T11:23:14.576Z,55.96
2023-05-08T11:24:14.672Z,55.23
2023-05-08T11:25:14.575Z,56.13
2023-05-08T11:26:14.555Z,56.71
2023-05-08T11:27:14.539Z,58.18
2023-05-08T11:28:14.509Z,55.65
2023-05-08T11:29:14.502Z,56.05
2023-05-08T11:30:14.637Z,55.88
2023-05-08T11:31:14.505Z,56.98
2023-05-08T11:32:14.448Z,56.28
2023-05-08T11:33:14.479Z,54.35
2023-05-08T11:34:14.436Z,55.05
2023-05-08T11:35:14.432Z,56.35
2023-05-08T11:36:14.426Z,55.25
2023-05-08T11:37:14.388Z,56.35
2023-05-08T11:38:14.405Z,55.43
2023-05-08T11:39:14.381Z,53.52
2023-05-08T11:40:14.546Z,55.73
2023-05-08T11:41:14.360Z,55.43
2023-05-08T11:42:14.328Z,54.62
2023-05-08T11:43:14.311Z,56.83
2023-05-08T11:44:14.788Z,54.72
2023-05-08T11:45:14.340Z,53.69
2023-05-08T11:46:14.298Z,53.82
2023-05-08T11:47:14.363Z,55.20
2023-05-08T11:48:14.280Z,52.80
2023-05-08T11:49:14.441Z,53.52
2023-05-08T11:50:14.549Z,57.73
2023-05-08T11:51:14.198Z,52.19
2023-05-08T11:52:14.203Z,54.39
2023-05-08T11:53:14.166Z,53.52
2023-05-08T11:54:14.187Z,57.43
2023-05-08T11:55:14.149Z,54.75
2023-05-08T11:56:14.175Z,55.02
2023-05-08T11:57:14.119Z,54.82
2023-05-08T11:58:14.115Z,56.23
2023-05-08T11:59:14.136Z,54.50
2023-05-08T12:00:14.343Z,52.89
2023-05-08T12:01:14.104Z,55.40
2023-05-08T12:02:14.100Z,57.03
2023-05-08T12:03:14.209Z,55.22
2023-05-08T12:04:14.180Z,55.55
2023-05-08T12:05:21.011Z,56.05
2023-05-08T12:06:14.000Z,57.76
2023-05-08T12:07:13.986Z,54.22
2023-05-08T12:08:13.986Z,53.02
2023-05-08T12:09:14.025Z,54.02
2023-05-08T12:10:14.596Z,53.92
2023-05-08T12:11:13.925Z,53.75
2023-05-08T12:12:13.936Z,56.85
2023-05-08T12:13:13.987Z,55.32
2023-05-08T12:14:13.894Z,53.34
2023-05-08T12:15:21.382Z,53.85
2023-05-08T12:16:20.925Z,54.55
2023-05-08T12:17:22.866Z,53.12
2023-05-08T12:18:20.869Z,53.92
2023-05-08T12:19:28.323Z,53.52
2023-05-08T12:20:21.322Z,52.12
2023-05-08T12:21:21.299Z,54.72
2023-05-08T12:22:22.492Z,52.01
2023-05-08T12:23:13.771Z,52.84
2023-05-08T12:24:13.750Z,54.35
2023-05-08T12:25:14.049Z,54.85
2023-05-08T12:26:13.731Z,53.64
2023-05-08T12:27:13.742Z,54.02
2023-05-08T12:28:13.712Z,53.14
2023-05-08T12:29:13.705Z,52.87
2023-05-08T12:30:14.135Z,59.96
2023-05-08T12:31:13.852Z,53.22
2023-05-08T12:32:13.679Z,52.62
2023-05-08T12:33:13.682Z,52.92
2023-05-08T12:34:13.630Z,53.50
2023-05-08T12:35:13.652Z,52.27
2023-05-08T12:36:13.655Z,52.49
2023-05-08T12:37:13.584Z,54.30
2023-05-08T12:38:13.602Z,52.12
2023-05-08T12:39:13.638Z,52.22
2023-05-08T12:40:13.722Z,53.22
2023-05-08T12:41:13.547Z,55.02
2023-05-08T12:42:13.521Z,51.12
2023-05-08T12:43:13.532Z,51.82
2023-05-08T12:44:13.488Z,51.84
2023-05-08T12:45:13.500Z,52.17
2023-05-08T12:46:14.416Z,54.15
2023-05-08T12:47:13.454Z,55.02
2023-05-08T12:48:13.546Z,54.47
2023-05-08T12:49:13.478Z,50.37
2023-05-08T12:50:13.594Z,54.05
2023-05-08T12:51:13.409Z,53.34
2023-05-08T12:52:13.389Z,52.27
2023-05-08T12:53:13.376Z,51.39